Time;durP1;ratioP1;P1;durP2;ratioP2;P2;SDS_P1;SDS_P2;PMS_P1;PMS_P2;Temp;Humidity;BMP_temperature;BMP_pressure;BME280_temperature;BME280_humidity;BME280_pressure;Samples;Min_cycle;Max_cycle;Signal;HPM_P1;HPM_P2
2023/07/13 00:02:07;;;;;;;14.50;7.70;;;;;;;24.37;nan;62206.38;5031923;28;20183;-59
2023/07/13 00:04:33;;;;;;;11.52;7.55;;;;;;;24.51;nan;62094.28;5031836;28;20307;-59
2023/07/13 00:06:58;;;;;;;18.45;7.90;;;;;;;24.22;nan;62155.31;5031483;28;20712;-58
2023/07/13 00:09:24;;;;;;;14.05;7.78;;;;;;;24.44;nan;62106.66;5031668;28;20572;-59
2023/07/13 00:11:55;;;;;;;12.13;7.55;;;;;;;24.06;nan;62035.25;5030823;28;20262;-57
2023/07/13 00:14:22;;;;;;;14.85;8.07;;;;;;;24.01;nan;62029.56;5031847;28;20203;-57
2023/07/13 00:16:47;;;;;;;11.23;7.75;;;;;;;24.14;nan;62041.72;5031760;28;20676;-58
2023/07/13 00:19:13;;;;;;;14.10;7.55;;;;;;;24.26;nan;62086.19;5031565;28;20179;-58
2023/07/13 00:21:40;;;;;;;12.73;8.18;;;;;;;23.88;nan;61931.81;5031628;28;20182;-58
2023/07/13 00:24:08;;;;;;;14.48;8.10;;;;;;;24.15;nan;62016.75;5031838;28;20233;-58
2023/07/13 00:26:34;;;;;;;12.65;7.10;;;;;;;23.83;nan;62009.09;5031638;28;20175;-58
2023/07/13 00:28:59;;;;;;;13.90;7.85;;;;;;;23.52;nan;62121.06;5031517;28;20167;-59
2023/07/13 00:31:25;;;;;;;12.95;7.32;;;;;;;23.96;nan;61984.72;5034550;28;20186;-59
2023/07/13 00:33:51;;;;;;;14.60;8.40;;;;;;;24.03;nan;62032.41;5035032;28;20277;-57
2023/07/13 00:36:16;;;;;;;15.60;8.70;;;;;;;23.92;nan;62311.69;5035420;28;20553;-59
2023/07/13 00:38:42;;;;;;;13.50;7.93;;;;;;;24.09;nan;62119.59;5035470;28;20184;-57
2023/07/13 00:41:08;;;;;;;13.48;8.00;;;;;;;24.08;nan;62025.03;5035228;28;20188;-59
2023/07/13 00:43:34;;;;;;;12.55;7.80;;;;;;;24.02;nan;62062.59;5035748;28;20179;-58
2023/07/13 00:45:59;;;;;;;12.82;7.88;;;;;;;24.04;nan;62129.56;5035530;28;20171;-59
2023/07/13 00:48:33;;;;;;;14.82;8.68;;;;;;;23.97;nan;62035.44;5035142;28;20171;-58
2023/07/13 00:51:01;;;;;;;14.98;8.13;;;;;;;23.88;nan;61994.47;5035684;28;20683;-57
2023/07/13 00:53:29;;;;;;;12.55;7.65;;;;;;;23.83;nan;62022.13;5035102;28;20191;-58
2023/07/13 00:55:56;;;;;;;13.95;7.78;;;;;;;23.74;nan;61997.38;5035108;28;20262;-56
2023/07/13 00:58:23;;;;;;;11.27;7.30;;;;;;;23.87;nan;62121.22;5034997;28;20561;-56
2023/07/13 01:00:49;;;;;;;13.50;7.55;;;;;;;23.89;nan;62147.00;5034978;28;20266;-58
2023/07/13 01:03:15;;;;;;;10.80;7.05;;;;;;;23.93;nan;61994.34;5034612;28;20223;-58
2023/07/13 01:05:41;;;;;;;11.00;7.55;;;;;;;24.00;nan;62065.53;5035112;28;20179;-58
2023/07/13 01:08:06;;;;;;;16.13;7.80;;;;;;;23.79;nan;62005.09;5034908;28;20179;-57
2023/07/13 01:10:41;;;;;;;11.82;7.63;;;;;;;23.68;nan;61993.16;5035050;28;20285;-58
2023/07/13 01:13:08;;;;;;;13.45;7.32;;;;;;;23.90;nan;62038.50;5034876;28;20557;-59
2023/07/13 01:15:43;;;;;;;14.52;8.15;;;;;;;23.59;nan;61980.31;5034574;28;20252;-59
2023/07/13 01:18:15;;;;;;;10.90;7.40;;;;;;;23.52;nan;61956.16;5035147;28;20186;-57
2023/07/13 01:20:41;;;;;;;10.98;7.07;;;;;;;23.63;nan;62070.97;5035108;28;20199;-59
2023/07/13 01:23:10;;;;;;;10.88;7.22;;;;;;;23.58;nan;62260.94;5035176;28;20182;-58
2023/07/13 01:25:37;;;;;;;11.02;6.47;;;;;;;23.50;nan;62071.25;5034675;28;20171;-59
2023/07/13 01:28:04;;;;;;;11.50;7.20;;;;;;;23.49;nan;62096.22;5034490;28;20188;-59
2023/07/13 01:30:30;;;;;;;13.10;7.53;;;;;;;23.39;nan;61978.44;5034618;28;20187;-58
2023/07/13 01:32:56;;;;;;;12.05;7.10;;;;;;;23.65;nan;61971.50;5034703;28;20276;-59
2023/07/13 01:35:21;;;;;;;11.65;7.20;;;;;;;23.47;nan;61984.38;5034537;28;20199;-59
2023/07/13 01:37:47;;;;;;;10.00;5.90;;;;;;;23.74;nan;62122.63;5034604;28;20178;-58
2023/07/13 01:40:12;;;;;;;9.57;6.78;;;;;;;23.79;nan;62125.16;5034444;28;20186;-58
2023/07/13 01:42:38;;;;;;;11.27;7.40;;;;;;;23.56;nan;62073.44;5033858;28;20662;-58
2023/07/13 01:45:04;;;;;;;11.98;7.47;;;;;;;23.37;nan;62106.56;5034309;28;20179;-58
2023/07/13 01:47:30;;;;;;;11.00;7.07;;;;;;;23.13;nan;62045.31;5034472;28;20249;-58
2023/07/13 01:49:56;;;;;;;12.30;7.10;;;;;;;23.25;nan;61986.56;5034236;28;20651;-57
2023/07/13 01:52:22;;;;;;;12.32;7.10;;;;;;;20.86;nan;61779.66;5032790;28;20521;-57
2023/07/13 01:54:47;;;;;;;12.05;6.90;;;;;;;23.30;nan;62065.25;5033668;28;20749;-58
2023/07/13 01:57:13;;;;;;;12.23;6.95;;;;;;;23.43;nan;61980.38;5033515;28;20168;-58
2023/07/13 01:59:38;;;;;;;10.32;6.85;;;;;;;23.15;nan;61912.06;5032919;28;20179;-58
2023/07/13 02:02:04;;;;;;;11.07;6.82;;;;;;;23.28;nan;61984.19;5033553;28;20178;-56
2023/07/13 02:04:29;;;;;;;9.65;6.55;;;;;;;23.34;nan;61960.28;5033659;28;20219;-57
2023/07/13 02:06:55;;;;;;;8.85;5.80;;;;;;;23.43;nan;62006.47;5033535;28;20167;-56
2023/07/13 02:09:21;;;;;;;10.73;6.88;;;;;;;23.43;nan;62079.50;5033263;28;20171;-57
2023/07/13 02:11:46;;;;;;;11.90;7.00;;;;;;;23.48;nan;61986.09;5033180;28;20179;-58
2023/07/13 02:14:11;;;;;;;9.52;6.38;;;;;;;23.56;nan;62158.97;5032994;28;20262;-57
2023/07/13 02:16:37;;;;;;;10.75;6.90;;;;;;;23.40;nan;61952.94;5033139;28;20226;-58
2023/07/13 02:19:02;;;;;;;10.40;6.72;;;;;;;23.21;nan;61942.34;5033542;28;20549;-58
2023/07/13 02:21:28;;;;;;;10.25;7.20;;;;;;;23.40;nan;62065.63;5033158;28;20214;-58
2023/07/13 02:23:54;;;;;;;10.05;6.80;;;;;;;23.09;nan;61939.69;5031169;28;20270;-58
2023/07/13 02:26:20;;;;;;;11.88;6.95;;;;;;;23.32;nan;61968.44;5030943;28;20179;-58
2023/07/13 02:28:46;;;;;;;10.05;6.85;;;;;;;22.98;nan;61908.94;5031220;28;20176;-59
2023/07/13 02:31:14;;;;;;;10.13;6.80;;;;;;;23.12;nan;62067.66;5031345;28;20174;-57
2023/07/13 02:33:39;;;;;;;11.77;7.57;;;;;;;23.13;nan;61894.69;5029052;28;20690;-58
2023/07/13 02:36:05;;;;;;;11.20;7.20;;;;;;;21.92;nan;61893.75;5030712;28;20186;-58
2023/07/13 02:38:33;;;;;;;9.32;6.30;;;;;;;22.96;nan;61877.44;5031837;28;20179;-58
2023/07/13 02:40:59;;;;;;;10.40;6.97;;;;;;;23.15;nan;61946.50;5032942;28;20497;-58
2023/07/13 02:43:25;;;;;;;10.13;6.65;;;;;;;22.95;nan;61889.91;4562275;28;20935;-58
2023/07/13 02:45:51;;;;;;;9.32;6.72;;;;;;;22.96;nan;61997.88;4424320;28;21200;-60
2023/07/13 02:48:16;;;;;;;8.95;6.18;;;;;;;22.87;nan;62011.69;4841001;28;20233;-58
2023/07/13 02:50:42;;;;;;;11.35;6.82;;;;;;;22.77;nan;61791.88;5033302;28;20171;-58
2023/07/13 02:53:07;;;;;;;11.45;6.80;;;;;;;22.75;nan;61826.06;5031947;28;20171;-58
2023/07/13 02:55:32;;;;;;;10.77;6.70;;;;;;;22.96;nan;61896.25;5032578;28;20291;-59
2023/07/13 02:57:58;;;;;;;10.18;7.13;;;;;;;22.66;nan;61856.94;5032868;28;20567;-58
2023/07/13 03:00:23;;;;;;;10.32;6.47;;;;;;;22.81;nan;61874.00;5032895;28;20167;-58
2023/07/13 03:02:49;;;;;;;9.75;6.45;;;;;;;23.06;nan;61918.03;5032548;28;20253;-59
2023/07/13 03:05:15;;;;;;;10.05;6.78;;;;;;;22.82;nan;61992.38;5032773;28;20163;-58
2023/07/13 03:07:40;;;;;;;9.75;6.57;;;;;;;23.03;nan;61908.84;5032510;28;20175;-59
2023/07/13 03:10:06;;;;;;;11.65;7.38;;;;;;;23.08;nan;62040.22;5033004;28;20646;-58
2023/07/13 03:12:32;;;;;;;11.85;6.97;;;;;;;23.27;nan;61933.50;5031709;28;20195;-57
2023/07/13 03:14:58;;;;;;;8.52;6.47;;;;;;;23.34;nan;62108.94;5032470;28;20338;-57
2023/07/13 03:17:23;;;;;;;9.32;6.35;;;;;;;23.50;nan;62006.59;5032371;28;20266;-58
2023/07/13 03:19:52;;;;;;;12.43;6.82;;;;;;;24.08;nan;62058.41;5032591;28;20260;-58
2023/07/13 03:22:18;;;;;;;12.05;7.20;;;;;;;24.06;nan;62176.81;5032511;28;20180;-57
2023/07/13 03:24:44;;;;;;;10.27;6.50;;;;;;;24.38;nan;62222.59;5032297;28;20171;-59
2023/07/13 03:27:09;;;;;;;10.80;6.15;;;;;;;24.78;nan;62118.69;5032323;28;20182;-59
2023/07/13 03:29:35;;;;;;;10.15;6.85;;;;;;;25.32;nan;62333.97;5032701;28;20172;-59
2023/07/13 03:32:00;;;;;;;9.75;6.03;;;;;;;26.07;nan;62363.50;5032400;28;20254;-59
2023/07/13 03:34:26;;;;;;;12.05;6.82;;;;;;;26.64;nan;62368.28;5032415;28;20201;-58
2023/07/13 03:36:55;;;;;;;9.73;6.47;;;;;;;27.08;nan;62444.22;5032161;28;20167;-57
2023/07/13 03:39:20;;;;;;;9.18;5.95;;;;;;;27.93;nan;62590.13;5032073;28;20163;-58
2023/07/13 03:41:46;;;;;;;10.38;6.47;;;;;;;28.40;nan;62805.84;5032214;28;20259;-58
2023/07/13 03:44:11;;;;;;;9.85;6.20;;;;;;;29.10;nan;62879.78;5032408;28;20175;-57
2023/07/13 03:46:37;;;;;;;9.95;6.07;;;;;;;29.65;nan;62852.81;5032136;28;20193;-57
2023/07/13 03:49:04;;;;;;;9.50;6.10;;;;;;;30.17;nan;62981.06;5031893;28;20230;-58
2023/07/13 03:51:30;;;;;;;7.85;5.82;;;;;;;30.59;nan;63044.63;5032224;28;20612;-58
2023/07/13 03:53:56;;;;;;;9.98;6.32;;;;;;;31.20;nan;63118.94;5031748;28;20199;-58
2023/07/13 03:56:22;;;;;;;10.23;6.78;;;;;;;31.88;nan;63265.38;5031856;28;20688;-58
2023/07/13 03:58:49;;;;;;;10.00;6.45;;;;;;;32.45;nan;63425.25;5025622;28;20250;-56
2023/07/13 04:01:16;;;;;;;10.85;6.32;;;;;;;32.76;nan;63468.44;5021087;28;20178;-58
2023/07/13 04:03:42;;;;;;;8.75;6.07;;;;;;;32.94;nan;63493.94;5025091;28;20715;-58
2023/07/13 04:06:15;;;;;;;10.95;6.13;;;;;;;33.44;nan;63522.00;5026548;28;20262;-58
2023/07/13 04:08:41;;;;;;;8.30;5.90;;;;;;;33.67;nan;63599.59;5024889;28;20229;-56
2023/07/13 04:11:06;;;;;;;8.23;5.70;;;;;;;33.88;nan;63575.53;5029383;28;20240;-56
2023/07/13 04:13:32;;;;;;;9.85;6.43;;;;;;;34.48;nan;63633.75;5023526;28;20175;-58
2023/07/13 04:15:57;;;;;;;9.63;6.22;;;;;;;34.71;nan;63819.19;5023134;28;20274;-58
2023/07/13 04:18:23;;;;;;;9.00;6.05;;;;;;;34.85;nan;63877.38;5028529;28;20601;-57
2023/07/13 04:20:50;;;;;;;9.43;5.90;;;;;;;35.35;nan;63878.97;5030232;28;20187;-59
2023/07/13 04:23:16;;;;;;;7.78;5.50;;;;;;;35.57;nan;63947.06;5031195;28;20250;-57
2023/07/13 04:25:46;;;;;;;8.93;5.90;;;;;;;35.60;nan;63857.44;5030627;28;20270;-60
2023/07/13 04:28:11;;;;;;;9.60;5.80;;;;;;;35.41;nan;63904.56;5030886;28;20240;-58
2023/07/13 04:30:37;;;;;;;10.20;6.10;;;;;;;35.28;nan;64115.53;5030766;28;20175;-57
2023/07/13 04:33:02;;;;;;;13.07;6.70;;;;;;;34.93;nan;63828.75;5030931;28;20175;-57
2023/07/13 04:35:28;;;;;;;11.82;6.57;;;;;;;34.39;nan;63724.25;5030770;28;20197;-60
2023/07/13 04:37:53;;;;;;;12.23;7.13;;;;;;;34.11;nan;63675.88;5030630;28;20174;-60
2023/07/13 04:40:20;;;;;;;9.88;6.70;;;;;;;34.11;nan;63649.91;5030977;28;20268;-74
2023/07/13 04:42:46;;;;;;;13.38;7.20;;;;;;;33.84;nan;63586.25;5026241;28;20199;-60
2023/07/13 04:45:13;;;;;;;14.95;7.10;;;;;;;33.41;nan;63542.41;5021142;28;20172;-64
2023/07/13 04:47:38;;;;;;;12.52;7.30;;;;;;;32.77;nan;63374.25;5025046;28;20596;-64
2023/07/13 04:50:06;;;;;;;14.65;7.93;;;;;;;32.85;nan;63505.31;5030138;28;20270;-63
2023/07/13 04:52:32;;;;;;;12.88;7.72;;;;;;;32.77;nan;63474.91;5028126;28;20174;-61
2023/07/13 04:54:59;;;;;;;10.48;7.15;;;;;;;32.73;nan;63359.63;5030473;28;20218;-61
2023/07/13 04:57:24;;;;;;;14.00;7.68;;;;;;;32.77;nan;63408.69;5030764;28;20673;-62
2023/07/13 04:59:49;;;;;;;14.15;7.82;;;;;;;32.97;nan;63407.34;5030331;28;20177;-65
2023/07/13 05:02:15;;;;;;;12.50;7.15;;;;;;;33.24;nan;63534.53;5030214;28;20190;-61
2023/07/13 05:04:40;;;;;;;14.68;7.75;;;;;;;33.39;nan;63545.41;5030196;28;20650;-62
2023/07/13 05:07:06;;;;;;;13.43;7.57;;;;;;;33.40;nan;63517.38;5031124;28;20199;-61
2023/07/13 05:09:31;;;;;;;12.93;7.80;;;;;;;33.10;nan;63523.63;5030640;28;20535;-63
2023/07/13 05:11:57;;;;;;;12.35;8.05;;;;;;;33.23;nan;63506.28;5030850;28;20185;-64
2023/07/13 05:14:22;;;;;;;12.60;7.82;;;;;;;33.02;nan;63559.41;5030229;28;20229;-62
2023/07/13 05:16:47;;;;;;;14.18;7.38;;;;;;;33.03;nan;63451.94;5032438;28;20657;-61
2023/07/13 05:19:13;;;;;;;11.45;7.68;;;;;;;33.18;nan;63463.97;5026431;28;20203;-63
2023/07/13 05:21:38;;;;;;;12.38;7.53;;;;;;;;;;5028661;28;20626;-64
2023/07/13 05:24:04;;;;;;;11.60;7.35;;;;;;;33.67;nan;63593.69;5030884;28;20209;-60
2023/07/13 05:26:29;;;;;;;10.13;7.22;;;;;;;33.56;nan;63573.59;5033477;28;20228;-62
2023/07/13 05:28:55;;;;;;;21.33;9.48;;;;;;;33.54;nan;63552.13;5034293;28;20191;-62
2023/07/13 05:31:20;;;;;;;14.05;8.00;;;;;;;33.70;nan;63873.63;5034326;28;20170;-64
2023/07/13 05:33:46;;;;;;;12.60;7.10;;;;;;;33.95;nan;63612.81;5034283;28;20195;-63
2023/07/13 05:36:11;;;;;;;11.75;7.10;;;;;;;34.91;nan;63831.19;5034154;28;20167;-64
2023/07/13 05:38:36;;;;;;;11.40;6.90;;;;;;;34.60;nan;63724.06;5034262;28;20508;-62
2023/07/13 05:41:02;;;;;;;13.70;7.40;;;;;;;34.25;nan;63676.19;5034269;28;20166;-63
2023/07/13 05:43:27;;;;;;;13.35;7.43;;;;;;;33.93;nan;63676.84;5034016;28;20584;-64
2023/07/13 05:45:54;;;;;;;10.43;6.90;;;;;;;32.62;nan;63474.00;5032991;28;20257;-66
2023/07/13 05:48:20;;;;;;;11.20;7.50;;;;;;;32.26;nan;63347.75;5033585;28;20253;-65
2023/07/13 05:50:45;;;;;;;14.18;7.47;;;;;;;31.79;nan;63249.16;5034015;28;20214;-65
2023/07/13 05:53:12;;;;;;;12.55;7.35;;;;;;;31.58;nan;63321.25;5034304;28;20171;-65
2023/07/13 05:55:49;;;;;;;11.57;7.00;;;;;;;31.44;nan;63291.91;5033645;28;20198;-64
2023/07/13 05:58:17;;;;;;;10.38;7.18;;;;;;;31.41;nan;63229.72;5034265;28;20185;-63
2023/07/13 06:00:42;;;;;;;10.73;7.15;;;;;;;31.20;nan;63121.00;5034195;28;20660;-62
2023/07/13 06:03:07;;;;;;;10.60;7.18;;;;;;;31.32;nan;63101.03;5033774;28;20234;-65
2023/07/13 06:05:35;;;;;;;13.68;7.85;;;;;;;31.34;nan;63222.22;5034377;28;20171;-65
2023/07/13 06:08:01;;;;;;;12.55;7.20;;;;;;;30.92;nan;63123.66;5034314;28;20175;-63
2023/07/13 06:10:26;;;;;;;10.80;7.13;;;;;;;31.26;nan;63152.22;5033974;28;20246;-65
2023/07/13 06:12:51;;;;;;;10.98;7.15;;;;;;;30.93;nan;63212.53;5033703;28;20182;-62
2023/07/13 06:15:17;;;;;;;12.35;6.80;;;;;;;31.33;nan;63173.50;5033948;28;20187;-64
2023/07/13 06:17:43;;;;;;;11.77;7.07;;;;;;;31.18;nan;63206.44;5033605;28;20724;-64
2023/07/13 06:20:09;;;;;;;10.65;6.55;;;;;;;31.18;nan;63166.81;5033651;28;20193;-63
2023/07/13 06:22:34;;;;;;;12.45;7.32;;;;;;;30.83;nan;63108.03;5033401;28;20174;-62
2023/07/13 06:25:00;;;;;;;14.52;7.05;;;;;;;30.86;nan;63112.03;5033278;28;20166;-60
2023/07/13 06:27:25;;;;;;;11.02;7.47;;;;;;;30.97;nan;63050.78;5033866;28;20178;-63
2023/07/13 06:29:51;;;;;;;10.18;6.55;;;;;;;31.11;nan;63206.88;5033953;28;20173;-64
2023/07/13 06:32:16;;;;;;;11.32;7.18;;;;;;;31.44;nan;63233.19;5048553;28;20213;-63
2023/07/13 06:34:42;;;;;;;12.82;7.05;;;;;;;31.44;nan;63463.09;5033775;28;20658;-63
2023/07/13 06:37:07;;;;;;;11.43;7.15;;;;;;;31.23;nan;63283.53;5033236;28;20228;-61
2023/07/13 06:39:32;;;;;;;15.23;7.28;;;;;;;29.20;nan;64758.63;5033092;28;20202;-63
2023/07/13 06:41:58;;;;;;;10.00;6.90;;;;;;;31.55;nan;63240.56;5033158;28;20601;-62
2023/07/13 06:44:23;;;;;;;10.90;7.13;;;;;;;31.73;nan;63530.44;5032626;28;20182;-61
2023/07/13 06:46:48;;;;;;;12.57;6.88;;;;;;;31.36;nan;63411.56;5032492;28;20197;-65
2023/07/13 06:49:14;;;;;;;13.02;7.35;;;;;;;31.45;nan;63203.19;5032991;28;20264;-62
2023/07/13 06:51:39;;;;;;;11.75;6.78;;;;;;;28.93;nan;64690.50;5032666;28;20647;-61
2023/07/13 06:54:05;;;;;;;10.45;7.03;;;;;;;31.46;nan;63209.63;5032611;28;20285;-65
2023/07/13 06:56:30;;;;;;;10.18;6.88;;;;;;;31.48;nan;63174.34;5033059;28;20630;-63
2023/07/13 06:58:55;;;;;;;11.18;7.30;;;;;;;31.48;nan;63180.22;5032751;28;20254;-64
2023/07/13 07:01:21;;;;;;;12.25;7.18;;;;;;;31.69;nan;63242.91;5032663;28;20170;-63
2023/07/13 07:03:47;;;;;;;10.88;7.60;;;;;;;31.78;nan;63255.94;5032835;28;20705;-61
2023/07/13 07:06:20;;;;;;;11.02;7.13;;;;;;;31.88;nan;63246.28;5024203;28;20183;-66
2023/07/13 07:08:46;;;;;;;11.57;7.20;;;;;;;31.78;nan;63192.47;5031860;28;20277;-62
2023/07/13 07:11:14;;;;;;;9.60;6.65;;;;;;;31.97;nan;63326.00;5030916;28;20232;-63
2023/07/13 07:13:40;;;;;;;12.00;6.95;;;;;;;31.81;nan;63529.13;5025936;28;20213;-64
2023/07/13 07:16:06;;;;;;;11.60;7.25;;;;;;;31.80;nan;63253.53;5032338;28;20251;-62
2023/07/13 07:18:32;;;;;;;11.63;7.43;;;;;;;32.01;nan;63365.00;5032105;28;20658;-62
2023/07/13 07:20:57;;;;;;;12.27;7.32;;;;;;;31.81;nan;63355.16;5031906;28;20265;-62
2023/07/13 07:23:22;;;;;;;10.77;7.00;;;;;;;31.86;nan;63257.22;4633242;28;20554;-62
2023/07/13 07:25:48;;;;;;;10.50;7.35;;;;;;;32.12;nan;63342.19;5032559;28;20194;-63
2023/07/13 07:28:17;;;;;;;9.88;7.13;;;;;;;32.18;nan;63315.28;5032306;28;20170;-65
2023/07/13 07:30:44;;;;;;;10.77;6.93;;;;;;;32.37;nan;63328.69;5032166;28;20191;-64
2023/07/13 07:33:09;;;;;;;12.00;7.05;;;;;;;32.36;nan;63317.53;5032541;28;20171;-61
2023/07/13 07:35:35;;;;;;;12.82;6.63;;;;;;;32.69;nan;63375.63;5032244;28;20206;-62
2023/07/13 07:38:00;;;;;;;10.75;6.93;;;;;;;32.54;nan;63300.63;5032590;28;20206;-64
2023/07/13 07:40:26;;;;;;;11.15;6.38;;;;;;;32.74;nan;63472.00;5031823;28;20206;-63
2023/07/13 07:42:51;;;;;;;8.88;6.00;;;;;;;32.80;nan;63499.53;5031937;28;20279;-64
2023/07/13 07:45:18;;;;;;;12.10;6.70;;;;;;;32.68;nan;63329.44;5032299;28;20591;-60
2023/07/13 07:47:43;;;;;;;10.90;6.85;;;;;;;32.94;nan;63467.47;5032386;28;20178;-64
2023/07/13 07:50:09;;;;;;;9.70;6.72;;;;;;;32.77;nan;63392.78;5031745;28;20593;-65
2023/07/13 07:52:35;;;;;;;11.32;7.00;;;;;;;33.22;nan;63532.22;5032120;28;20167;-62
2023/07/13 07:55:00;;;;;;;10.35;6.35;;;;;;;33.37;nan;63580.78;5031881;28;20203;-63
2023/07/13 07:57:26;;;;;;;10.05;7.05;;;;;;;33.00;nan;63490.88;5031749;28;20171;-63
2023/07/13 07:59:51;;;;;;;12.77;7.13;;;;;;;32.91;nan;63461.94;5031949;28;20175;-61
2023/07/13 08:02:16;;;;;;;9.98;6.72;;;;;;;33.33;nan;63517.25;5031359;28;20163;-61
2023/07/13 08:04:42;;;;;;;10.48;6.60;;;;;;;33.48;nan;63561.69;5030936;28;20189;-63
2023/07/13 08:07:08;;;;;;;10.50;7.22;;;;;;;33.47;nan;63607.69;5031848;28;20182;-61
2023/07/13 08:09:33;;;;;;;11.98;6.85;;;;;;;33.60;nan;63522.53;5031671;28;20175;-65
2023/07/13 08:11:59;;;;;;;11.18;6.57;;;;;;;33.93;nan;63724.03;5031438;28;20575;-65
2023/07/13 08:14:25;;;;;;;10.10;6.80;;;;;;;34.07;nan;63695.13;5030937;28;20348;-62
2023/07/13 08:16:50;;;;;;;9.55;6.80;;;;;;;34.30;nan;63652.19;5031930;28;20253;-62
2023/07/13 08:19:15;;;;;;;11.43;6.47;;;;;;;34.18;nan;63713.19;5030337;28;20181;-62
2023/07/13 08:21:42;;;;;;;10.13;7.03;;;;;;;34.34;nan;63745.00;5031163;28;20551;-61
2023/07/13 08:24:09;;;;;;;12.32;6.78;;;;;;;34.59;nan;63805.84;5031454;28;20174;-63
2023/07/13 08:26:35;;;;;;;9.65;6.32;;;;;;;34.79;nan;63860.38;5031189;28;20189;-64
2023/07/13 08:29:00;;;;;;;9.60;6.88;;;;;;;34.29;nan;63898.53;5030833;28;20588;-64
2023/07/13 08:31:25;;;;;;;9.13;6.55;;;;;;;34.59;nan;63781.94;5031383;28;20519;-63
2023/07/13 08:33:51;;;;;;;10.80;6.32;;;;;;;34.83;nan;63800.63;5031229;28;20202;-63
2023/07/13 08:36:16;;;;;;;10.27;6.20;;;;;;;34.99;nan;63875.59;5031444;28;20171;-64
2023/07/13 08:38:42;;;;;;;8.88;5.88;;;;;;;35.09;nan;63830.22;5030643;28;20257;-64
2023/07/13 08:41:16;;;;;;;7.63;5.93;;;;;;;34.98;nan;63889.78;5031226;28;20657;-62
2023/07/13 08:43:48;;;;;;;7.72;5.70;;;;;;;34.91;nan;63837.06;5031308;28;20577;-65
2023/07/13 08:46:31;;;;;;;9.50;6.00;;;;;;;35.30;nan;63891.81;5031175;28;20187;-62
2023/07/13 08:48:59;;;;;;;9.00;6.28;;;;;;;35.22;nan;63853.28;5031363;28;20194;-65
2023/07/13 08:51:40;;;;;;;11.27;5.97;;;;;;;35.45;nan;63933.16;5032529;28;20254;-61
2023/07/13 08:54:17;;;;;;;9.73;6.22;;;;;;;35.50;nan;63925.06;5035177;28;20194;-63
2023/07/13 08:56:45;;;;;;;8.88;5.93;;;;;;;35.50;nan;63864.47;5035324;28;20246;-64
2023/07/13 08:59:14;;;;;;;13.73;5.90;;;;;;;35.75;nan;63994.59;5034754;28;20185;-61
2023/07/13 09:02:05;;;;;;;8.27;5.65;;;;;;;35.85;nan;64024.84;5035225;28;20179;-62
2023/07/13 09:04:49;;;;;;;8.63;5.97;;;;;;;35.45;nan;64018.84;5035452;28;20222;-65
2023/07/13 09:07:33;;;;;;;9.82;5.50;;;;;;;35.39;nan;63913.47;5035409;28;20175;-62
2023/07/13 09:10:25;;;;;;;8.07;5.43;;;;;;;35.61;nan;63988.97;5034840;28;20174;-61
2023/07/13 09:13:14;;;;;;;8.05;5.38;;;;;;;35.61;nan;64169.91;5032724;28;20194;-63
2023/07/13 09:15:48;;;;;;;7.57;5.47;;;;;;;35.75;nan;63970.66;5035159;28;20245;-64
2023/07/13 09:18:26;;;;;;;9.13;5.25;;;;;;;35.63;nan;64055.16;5034966;28;20173;-63
2023/07/13 09:20:59;;;;;;;7.50;5.50;;;;;;;35.98;nan;63998.88;5034594;28;20261;-62
2023/07/13 09:23:29;;;;;;;8.30;5.60;;;;;;;35.82;nan;64044.75;5035120;28;20170;-64
2023/07/13 09:26:02;;;;;;;6.53;4.80;;;;;;;35.87;nan;63984.00;5034997;28;20175;-62
2023/07/13 09:28:33;;;;;;;6.82;4.93;;;;;;;35.80;nan;63954.56;5034539;28;20202;-62
2023/07/13 09:31:19;;;;;;;7.40;5.45;;;;;;;35.99;nan;64189.06;5034745;28;20250;-61
2023/07/13 09:33:45;;;;;;;8.35;4.90;;;;;;;35.88;nan;63979.84;5033573;28;20688;-63
2023/07/13 09:36:31;;;;;;;8.20;4.95;;;;;;;35.64;nan;63947.22;5034382;28;20167;-61
2023/07/13 09:39:04;;;;;;;6.65;4.95;;;;;;;35.73;nan;64082.78;5034383;28;20210;-63
2023/07/13 09:41:57;;;;;;;8.02;5.32;;;;;;;35.88;nan;64012.34;5034410;28;20169;-62
2023/07/13 09:44:30;;;;;;;6.18;4.60;;;;;;;35.95;nan;63987.97;5034508;28;20229;-61
2023/07/13 09:46:56;;;;;;;7.10;4.68;;;;;;;36.27;nan;64099.16;5033860;28;20178;-64
2023/07/13 09:49:36;;;;;;;8.60;5.40;;;;;;;36.08;nan;64003.06;5034087;28;20170;-61
2023/07/13 09:52:10;;;;;;;9.65;6.10;;;;;;;36.60;nan;64126.91;5032697;28;20528;-65
2023/07/13 09:54:37;;;;;;;8.25;6.05;;;;;;;36.79;nan;64318.44;5034304;28;20198;-63
2023/07/13 09:57:12;;;;;;;12.23;8.07;;;;;;;36.81;nan;64238.16;5034184;28;20182;-64
2023/07/13 09:59:43;;;;;;;12.80;8.95;;;;;;;37.12;nan;64255.59;5034408;28;20189;-62
2023/07/13 10:02:35;;;;;;;18.77;12.50;;;;;;;37.31;nan;64279.81;5033744;28;20159;-62
2023/07/13 10:05:07;;;;;;;16.23;9.93;;;;;;;37.23;nan;64265.72;5034038;28;20182;-63
2023/07/13 10:07:38;;;;;;;12.27;6.50;;;;;;;36.64;nan;64125.63;5034019;28;20528;-64
2023/07/13 10:10:14;;;;;;;8.77;5.90;;;;;;;36.74;nan;64236.47;5034098;28;20175;-64
2023/07/13 10:12:40;;;;;;;11.48;6.97;;;;;;;36.95;nan;64321.13;5033706;28;20167;-63
2023/07/13 10:15:15;;;;;;;8.18;5.88;;;;;;;37.08;nan;64149.59;5033332;28;20242;-62
2023/07/13 10:17:43;;;;;;;7.88;5.18;;;;;;;37.09;nan;64257.44;5032643;28;20216;-62
2023/07/13 10:20:12;;;;;;;9.32;5.03;;;;;;;37.18;nan;64254.56;5034165;28;20614;-62
2023/07/13 10:22:38;;;;;;;7.55;4.97;;;;;;;37.00;nan;64209.59;5033046;28;20313;-62
2023/07/13 10:25:13;;;;;;;9.57;4.65;;;;;;;37.15;nan;64286.34;5031932;28;20187;-63
2023/07/13 10:27:40;;;;;;;7.40;4.78;;;;;;;37.12;nan;64255.59;5033047;28;20170;-62
2023/07/13 10:30:13;;;;;;;8.02;5.15;;;;;;;37.12;nan;64212.91;5033622;28;20194;-61
2023/07/13 10:32:39;;;;;;;8.52;5.68;;;;;;;37.08;nan;64299.53;5033447;28;20174;-61
2023/07/13 10:35:09;;;;;;;8.30;5.00;;;;;;;37.24;nan;64268.97;5033127;28;20249;-64
2023/07/13 10:38:01;;;;;;;7.40;5.55;;;;;;;37.50;nan;64320.63;5033552;28;20171;-64
2023/07/13 10:40:36;;;;;;;6.53;4.50;;;;;;;37.50;nan;64366.56;5032866;28;20249;-66
2023/07/13 10:43:07;;;;;;;10.20;4.80;;;;;;;37.21;nan;64138.03;5032636;28;20171;-65
2023/07/13 10:45:36;;;;;;;5.50;4.20;;;;;;;37.17;nan;64272.69;5031614;28;20185;-61
2023/07/13 10:48:02;;;;;;;9.75;4.78;;;;;;;37.37;nan;64343.41;5032618;28;20174;-59
2023/07/13 10:50:32;;;;;;;6.68;4.65;;;;;;;37.40;nan;64309.56;5032031;28;20199;-58
2023/07/13 10:53:20;;;;;;;6.03;3.88;;;;;;;37.23;nan;64289.75;5032440;28;20181;-58
2023/07/13 10:55:50;;;;;;;6.25;4.05;;;;;;;37.06;nan;64248.59;5031226;28;20197;-60
2023/07/13 10:58:33;;;;;;;7.68;4.90;;;;;;;37.27;nan;64323.78;5032247;28;20261;-61
2023/07/13 11:01:18;;;;;;;7.40;4.22;;;;;;;36.89;nan;64133.38;5031961;28;20650;-58
2023/07/13 11:03:43;;;;;;;9.32;4.95;;;;;;;37.06;nan;64270.53;5032379;28;20237;-60
2023/07/13 11:06:21;;;;;;;6.97;4.55;;;;;;;36.98;nan;64295.28;5032332;28;20182;-59
2023/07/13 11:08:46;;;;;;;7.93;4.13;;;;;;;36.86;nan;64209.28;5032363;28;20182;-57
2023/07/13 11:11:27;;;;;;;6.78;4.18;;;;;;;36.99;nan;64245.78;5031798;28;20178;-60
2023/07/13 11:13:53;;;;;;;5.50;4.10;;;;;;;37.19;nan;64327.78;5031426;28;20752;-59
2023/07/13 11:16:24;;;;;;;11.40;6.13;;;;;;;37.38;nan;64333.31;5032135;28;20210;-59
2023/07/13 11:18:53;;;;;;;14.68;6.88;;;;;;;37.42;nan;64273.94;5031839;28;20662;-60
2023/07/13 11:21:21;;;;;;;26.80;13.57;;;;;;;37.39;nan;64327.06;5031984;28;20175;-61
2023/07/13 11:24:01;;;;;;;14.05;5.10;;;;;;;37.29;nan;64248.72;5031750;28;20167;-59
2023/07/13 11:26:48;;;;;;;10.40;5.43;;;;;;;37.32;nan;64361.59;5031817;28;20622;-63
2023/07/13 11:29:39;;;;;;;11.75;6.05;;;;;;;37.37;nan;64308.13;5024025;28;20230;-59
2023/07/13 11:32:29;;;;;;;7.93;5.65;;;;;;;36.94;nan;64229.88;5012125;28;20164;-61
2023/07/13 11:34:55;;;;;;;11.23;5.95;;;;;;;37.08;nan;64194.94;5014736;28;20234;-64
2023/07/13 11:37:23;;;;;;;8.20;4.35;;;;;;;37.19;nan;64263.75;5010929;28;20210;-60
2023/07/13 11:39:51;;;;;;;6.35;4.55;;;;;;;37.59;nan;64366.44;5012218;28;20166;-62
2023/07/13 11:42:18;;;;;;;8.02;4.47;;;;;;;37.69;nan;64297.41;5011885;28;20179;-60
2023/07/13 11:44:50;;;;;;;7.32;4.38;;;;;;;37.79;nan;64418.53;5012314;28;20643;-60
2023/07/13 11:47:22;;;;;;;7.20;5.00;;;;;;;37.76;nan;64404.34;5012088;28;20250;-61
2023/07/13 11:49:53;;;;;;;5.53;3.78;;;;;;;37.98;nan;64464.78;5011607;28;20558;-64